Helen Merril — WDF2994 — position and weather

sailwx.info

Track history (hours):
 
Tides and Currents Weather Stations Pressure Air Temp Water Temp Dewpoint Dewpoint Depression Visibility Wind Speed Wind Dir Waves Ship Positions

Helen Merril

Owner: SCF Waxler Marine LLC, St. Rose, LA. More information available from US FCC via Universal Licensing System and Coast Guard Vessel Documentation Center.

Last reported at 2015-Sep-01 15:30 UTC. Time now 2015-Sep-01 18:16 UTC.
Position N 29°46' W 095°06'.

Length 33 m; draft 3 m.

Type: Ship (hazmat cat A). MMSI: 367434260.

Date/timePositionNaut miles runAvg speedWind from/ knotsBaromVisibWave heightAir tempDewpointWater temp
2015-Sep-01 15:30N 29°46' W 095°06'0 0.0
2015-Sep-01 13:18N 29°46' W 095°06'0 0.0
2015-Sep-01 09:16N 29°46' W 095°06'0 0.0
2015-Sep-01 06:24N 29°46' W 095°06'0 0.0
2015-Sep-01 04:26N 29°46' W 095°06'0 0.0
2015-Sep-01 03:31N 29°46' W 095°06'0 0.0
2015-Aug-31 16:33N 29°46' W 095°06'0 0.0
2015-Aug-31 15:31N 29°46' W 095°06'0 0.0
2015-Aug-31 14:33N 29°46' W 095°06'0 0.0
2015-Aug-31 13:21N 29°46' W 095°06'0 0.0
2015-Aug-31 12:27N 29°46' W 095°06'0 0.0
2015-Aug-31 11:28N 29°46' W 095°06'0 0.0
2015-Aug-31 10:33N 29°46' W 095°06'0 0.0
2015-Aug-31 09:34N 29°46' W 095°06'0 0.0
2015-Aug-31 08:32N 29°46' W 095°06'0 0.0
2015-Aug-31 07:33N 29°46' W 095°06'0 0.0
2015-Aug-31 06:33N 29°46' W 095°06'0 0.0
2015-Aug-31 05:33N 29°46' W 095°06'0 0.0
2015-Aug-31 04:29N 29°46' W 095°06'0 0.0
2015-Aug-30 21:32N 29°46' W 095°06'0 0.0
2015-Aug-30 20:32N 29°46' W 095°06'0 0.0
2015-Aug-30 19:31N 29°46' W 095°06'0 0.0
2015-Aug-30 18:33N 29°46' W 095°06'0 0.0
2015-Aug-30 17:33N 29°46' W 095°06'0 0.0
2015-Aug-30 16:32N 29°46' W 095°06'0 0.0
2015-Aug-30 15:34N 29°46' W 095°06'0 0.0
2015-Aug-30 14:33N 29°46' W 095°06'0 0.0
2015-Aug-30 13:33N 29°46' W 095°06'0 0.0
2015-Aug-30 12:33N 29°46' W 095°06'0 0.0
2015-Aug-30 11:33N 29°46' W 095°06'0 0.0
2015-Aug-30 10:34N 29°46' W 095°06'0 0.0
2015-Aug-30 09:33N 29°46' W 095°06'0 0.0
2015-Aug-30 08:34N 29°46' W 095°06'0 0.0
2015-Aug-30 07:34N 29°46' W 095°06'0 0.0
2015-Aug-30 06:33N 29°46' W 095°06'0 0.0
2015-Aug-30 05:33N 29°46' W 095°06'0 0.0
2015-Aug-30 04:33N 29°46' W 095°06'0 0.0
2015-Aug-30 03:33N 29°46' W 095°06'0 0.0
2015-Aug-30 02:34N 29°46' W 095°06'0 0.0
2015-Aug-30 01:34N 29°46' W 095°06'0 0.0
2015-Aug-30 00:33N 29°46' W 095°06'0 0.0
2015-Aug-29 23:33N 29°46' W 095°06'0 0.0
2015-Aug-29 22:33N 29°46' W 095°06'0 0.0
2015-Aug-29 21:33N 29°46' W 095°06'0 0.0
2015-Aug-29 20:33N 29°46' W 095°06'0 0.0
2015-Aug-29 19:34N 29°46' W 095°06'0 0.0
2015-Aug-29 18:33N 29°46' W 095°06'0 0.0
2015-Aug-29 17:33N 29°46' W 095°06'0 0.0
2015-Aug-29 16:33N 29°46' W 095°06'0 0.0
2015-Aug-29 15:33N 29°46' W 095°06'0 0.0
2015-Aug-29 14:33N 29°46' W 095°06'0 0.0
2015-Aug-29 13:34N 29°46' W 095°06'2 1.7
2015-Aug-29 12:26N 29°47' W 095°04'0 0.1
2015-Aug-29 11:33N 29°47' W 095°04'0 0.0
2015-Aug-29 10:33N 29°47' W 095°04'1 0.2
2015-Aug-29 03:21N 29°46' W 095°05'4 5.3
2015-Aug-29 02:33N 29°43' W 095°01'6 6.0
2015-Aug-29 01:34N 29°38' W 094°58'  
Track history (hours):
 
Tides and Currents Weather Stations Pressure Air Temp Water Temp Dewpoint Dewpoint Depression Visibility Wind Speed Wind Dir Waves Ship Positions

Helen Merril

Owner: SCF Waxler Marine LLC, St. Rose, LA. More information available from US FCC via Universal Licensing System and Coast Guard Vessel Documentation Center.

Last reported at 2015-Sep-01 15:30 UTC. Time now 2015-Sep-01 18:16 UTC.
Position N 29°46' W 095°06'.

Length 33 m; draft 3 m.

Type: Ship (hazmat cat A). MMSI: 367434260.

Date/timePositionNaut miles runAvg speedWind from/ knotsBaromVisibWave heightAir tempDewpointWater temp
2015-Sep-01 15:30N 29°46' W 095°06'0 0.0
2015-Sep-01 13:18N 29°46' W 095°06'0 0.0
2015-Sep-01 09:16N 29°46' W 095°06'0 0.0
2015-Sep-01 06:24N 29°46' W 095°06'0 0.0
2015-Sep-01 04:26N 29°46' W 095°06'0 0.0
2015-Sep-01 03:31N 29°46' W 095°06'0 0.0
2015-Aug-31 16:33N 29°46' W 095°06'0 0.0
2015-Aug-31 15:31N 29°46' W 095°06'0 0.0
2015-Aug-31 14:33N 29°46' W 095°06'0 0.0
2015-Aug-31 13:21N 29°46' W 095°06'0 0.0
2015-Aug-31 12:27N 29°46' W 095°06'0 0.0
2015-Aug-31 11:28N 29°46' W 095°06'0 0.0
2015-Aug-31 10:33N 29°46' W 095°06'0 0.0
2015-Aug-31 09:34N 29°46' W 095°06'0 0.0
2015-Aug-31 08:32N 29°46' W 095°06'0 0.0
2015-Aug-31 07:33N 29°46' W 095°06'0 0.0
2015-Aug-31 06:33N 29°46' W 095°06'0 0.0
2015-Aug-31 05:33N 29°46' W 095°06'0 0.0
2015-Aug-31 04:29N 29°46' W 095°06'0 0.0
2015-Aug-30 21:32N 29°46' W 095°06'0 0.0
2015-Aug-30 20:32N 29°46' W 095°06'0 0.0
2015-Aug-30 19:31N 29°46' W 095°06'0 0.0
2015-Aug-30 18:33N 29°46' W 095°06'0 0.0
2015-Aug-30 17:33N 29°46' W 095°06'0 0.0
2015-Aug-30 16:32N 29°46' W 095°06'0 0.0
2015-Aug-30 15:34N 29°46' W 095°06'0 0.0
2015-Aug-30 14:33N 29°46' W 095°06'0 0.0
2015-Aug-30 13:33N 29°46' W 095°06'0 0.0
2015-Aug-30 12:33N 29°46' W 095°06'0 0.0
2015-Aug-30 11:33N 29°46' W 095°06'0 0.0
2015-Aug-30 10:34N 29°46' W 095°06'0 0.0
2015-Aug-30 09:33N 29°46' W 095°06'0 0.0
2015-Aug-30 08:34N 29°46' W 095°06'0 0.0
2015-Aug-30 07:34N 29°46' W 095°06'0 0.0
2015-Aug-30 06:33N 29°46' W 095°06'0 0.0
2015-Aug-30 05:33N 29°46' W 095°06'0 0.0
2015-Aug-30 04:33N 29°46' W 095°06'0 0.0
2015-Aug-30 03:33N 29°46' W 095°06'0 0.0
2015-Aug-30 02:34N 29°46' W 095°06'0 0.0
2015-Aug-30 01:34N 29°46' W 095°06'0 0.0
2015-Aug-30 00:33N 29°46' W 095°06'0 0.0
2015-Aug-29 23:33N 29°46' W 095°06'0 0.0
2015-Aug-29 22:33N 29°46' W 095°06'0 0.0
2015-Aug-29 21:33N 29°46' W 095°06'0 0.0
2015-Aug-29 20:33N 29°46' W 095°06'0 0.0
2015-Aug-29 19:34N 29°46' W 095°06'0 0.0
2015-Aug-29 18:33N 29°46' W 095°06'0 0.0
2015-Aug-29 17:33N 29°46' W 095°06'0 0.0
2015-Aug-29 16:33N 29°46' W 095°06'0 0.0
2015-Aug-29 15:33N 29°46' W 095°06'0 0.0
2015-Aug-29 14:33N 29°46' W 095°06'0 0.0
2015-Aug-29 13:34N 29°46' W 095°06'2 1.7
2015-Aug-29 12:26N 29°47' W 095°04'0 0.1
2015-Aug-29 11:33N 29°47' W 095°04'0 0.0
2015-Aug-29 10:33N 29°47' W 095°04'1 0.2
2015-Aug-29 03:21N 29°46' W 095°05'4 5.3
2015-Aug-29 02:33N 29°43' W 095°01'6 6.0
2015-Aug-29 01:34N 29°38' W 094°58'  

Dump ship's entire track history